Time;durP1;ratioP1;P1;durP2;ratioP2;P2;SDS_P1;SDS_P2;PMS_P1;PMS_P2;Temp;Humidity;BMP_temperature;BMP_pressure;BME280_temperature;BME280_humidity;BME280_pressure;Samples;Min_cycle;Max_cycle;Signal;HPM_P1;HPM_P2
2022/06/05 00:01:01;;;;;;;2.72;1.85;;;;;;;29.16;45.96;100968.31;4164630;28;20041;-65
2022/06/05 00:03:34;;;;;;;3.83;1.80;;;;;;;29.16;46.11;100971.97;4164263;28;20096;-66
2022/06/05 00:06:16;;;;;;;3.58;2.00;;;;;;;29.14;46.14;100971.47;4155522;28;20033;-64
2022/06/05 00:08:43;;;;;;;4.20;1.98;;;;;;;29.15;45.96;100969.50;4134039;28;20053;-64
2022/06/05 00:10:54;;;;;;;3.08;1.90;;;;;;;29.15;46.12;100973.13;4149651;28;20092;-65
2022/06/05 00:12:55;;;;;;;2.08;1.60;;;;;;;29.16;46.06;100974.78;4164093;28;20095;-65
2022/06/05 00:14:57;;;;;;;3.05;1.75;;;;;;;29.14;46.10;100963.03;4164515;28;20096;-65
2022/06/05 00:16:58;;;;;;;3.00;2.30;;;;;;;29.13;46.17;100965.00;4164080;28;20041;-65
2022/06/05 00:19:03;;;;;;;4.07;2.03;;;;;;;29.06;46.05;100958.25;4163112;28;20121;-65
2022/06/05 00:21:06;;;;;;;3.85;1.90;;;;;;;29.14;46.19;100968.66;4164375;28;20069;-64
2022/06/05 00:23:07;;;;;;;3.30;1.80;;;;;;;29.13;46.17;100969.81;4163617;28;20033;-65
2022/06/05 00:25:10;;;;;;;2.50;1.70;;;;;;;29.13;46.25;100969.81;4164105;28;20046;-65
2022/06/05 00:27:28;;;;;;;3.53;1.77;;;;;;;29.13;46.03;100967.00;4163559;28;20103;-65
2022/06/05 00:30:02;;;;;;;4.55;1.92;;;;;;;29.10;46.36;100970.50;4164392;28;20034;-65
2022/06/05 00:32:09;;;;;;;3.05;2.17;;;;;;;29.14;46.16;100979.94;4131050;28;20091;-64
2022/06/05 00:34:11;;;;;;;5.32;2.10;;;;;;;29.13;46.29;100976.25;4164154;28;20452;-65
2022/06/05 00:36:43;;;;;;;3.72;2.30;;;;;;;29.11;45.94;100978.59;4163882;28;20092;-65
2022/06/05 00:39:01;;;;;;;4.50;1.98;;;;;;;29.12;46.17;100974.63;4164160;28;20049;-64
2022/06/05 00:41:21;;;;;;;3.97;1.80;;;;;;;29.12;46.30;100982.25;4163932;28;20033;-64
2022/06/05 00:43:24;;;;;;;1.65;1.55;;;;;;;29.13;46.00;100981.06;4163806;28;20443;-64
2022/06/05 00:45:28;;;;;;;5.32;2.15;;;;;;;29.12;46.35;100985.06;4163760;28;20440;-64
2022/06/05 00:47:43;;;;;;;3.58;2.22;;;;;;;29.12;46.17;100990.69;4163910;28;20037;-64
2022/06/05 00:50:10;;;;;;;2.00;1.80;;;;;;;29.11;46.30;100991.88;4163775;28;20045;-65
2022/06/05 00:52:13;;;;;;;2.60;1.80;;;;;;;29.08;46.31;100984.91;4164106;28;20033;-65
2022/06/05 00:54:15;;;;;;;4.60;3.55;;;;;;;29.14;46.03;101002.47;4163495;28;20034;-65
2022/06/05 00:56:19;;;;;;;3.70;2.08;;;;;;;29.09;46.31;100988.53;4162751;28;20049;-65
2022/06/05 00:58:22;;;;;;;3.63;2.08;;;;;;;29.03;46.03;100987.09;4163508;28;20102;-64
2022/06/05 01:00:28;;;;;;;2.85;1.80;;;;;;;29.12;46.13;101007.59;4164427;28;20091;-65
2022/06/05 01:02:33;;;;;;;3.35;1.80;;;;;;;29.12;46.05;101002.78;4168397;28;20103;-65
2022/06/05 01:04:37;;;;;;;3.83;2.03;;;;;;;29.07;46.18;100993.69;4165173;28;20042;-66
2022/06/05 01:06:38;;;;;;;2.67;2.13;;;;;;;29.11;46.14;101003.97;4176979;28;20095;-66
2022/06/05 01:08:40;;;;;;;2.97;1.70;;;;;;;29.12;46.15;100996.34;4179182;28;20037;-66
2022/06/05 01:11:03;;;;;;;2.22;1.98;;;;;;;29.11;46.38;100994.69;4163706;28;20050;-65
2022/06/05 01:13:29;;;;;;;3.03;1.90;;;;;;;29.11;46.03;100994.69;4171441;28;20550;-66
2022/06/05 01:15:45;;;;;;;4.63;1.80;;;;;;;29.10;46.19;100993.88;4173172;28;20377;-65
2022/06/05 01:18:02;;;;;;;2.70;1.92;;;;;;;29.12;46.20;101001.97;4169268;28;20037;-66
2022/06/05 01:20:35;;;;;;;2.15;1.83;;;;;;;29.12;46.35;101005.63;4170948;28;20053;-67
2022/06/05 01:23:17;;;;;;;4.35;2.00;;;;;;;29.12;46.00;101007.59;4141513;28;20041;-65
2022/06/05 01:25:55;;;;;;;4.30;2.22;;;;;;;29.12;46.32;101013.25;4173230;28;20052;-65
2022/06/05 01:28:07;;;;;;;3.28;2.65;;;;;;;29.13;46.23;101012.06;4174128;28;20087;-65
2022/06/05 01:30:24;;;;;;;3.72;2.03;;;;;;;29.12;46.16;101018.88;4181881;28;20053;-65
2022/06/05 01:32:55;;;;;;;4.70;2.03;;;;;;;29.05;46.18;101007.31;4173712;28;20086;-65
2022/06/05 01:35:04;;;;;;;2.30;1.98;;;;;;;29.12;46.31;101014.06;4175561;28;21582;-65
2022/06/05 01:37:27;;;;;;;2.78;2.05;;;;;;;29.11;46.14;101020.03;4174859;28;20111;-65
2022/06/05 01:39:49;;;;;;;3.20;2.08;;;;;;;29.11;46.30;101023.69;4160258;28;20493;-65
2022/06/05 01:41:58;;;;;;;2.88;1.85;;;;;;;29.07;46.19;101011.44;4177580;28;20480;-66
2022/06/05 01:44:08;;;;;;;3.30;1.80;;;;;;;29.10;46.11;101021.22;4172094;28;20164;-66
2022/06/05 01:46:19;;;;;;;2.35;1.90;;;;;;;29.11;46.36;101018.06;4178424;28;20102;-66
2022/06/05 01:48:29;;;;;;;3.53;2.10;;;;;;;29.12;46.22;101036.59;4179068;28;20092;-64
2022/06/05 01:50:42;;;;;;;2.13;1.92;;;;;;;29.11;46.21;101028.50;4196499;28;20443;-66
2022/06/05 01:52:56;;;;;;;2.30;2.10;;;;;;;29.09;46.38;101028.00;4187219;28;20029;-65
2022/06/05 01:55:11;;;;;;;3.08;1.90;;;;;;;29.10;46.37;101033.31;4191970;28;20033;-66
2022/06/05 01:57:16;;;;;;;4.30;1.83;;;;;;;29.11;46.33;101028.50;4182761;28;20082;-65
2022/06/05 01:59:43;;;;;;;2.20;2.00;;;;;;;29.11;46.35;101032.13;4195076;28;20056;-65
2022/06/05 02:01:50;;;;;;;1.92;1.83;;;;;;;29.11;46.27;101037.78;4169385;28;20029;-65
2022/06/05 02:04:41;;;;;;;3.70;1.98;;;;;;;29.07;46.27;101027.50;4182433;28;20099;-65
2022/06/05 02:06:53;;;;;;;2.63;2.00;;;;;;;29.05;46.29;101035.47;4128973;28;20053;-65
2022/06/05 02:09:11;;;;;;;2.13;1.90;;;;;;;29.12;46.07;101041.41;4173290;28;20103;-64
2022/06/05 02:11:27;;;;;;;2.42;2.22;;;;;;;29.10;46.31;101043.75;4174364;28;20082;-65
2022/06/05 02:13:28;;;;;;;1.75;1.63;;;;;;;29.12;46.36;101047.06;4184065;28;20070;-65
2022/06/05 02:15:30;;;;;;;4.72;2.00;;;;;;;29.11;46.04;101057.50;4186125;28;20028;-65
2022/06/05 02:17:31;;;;;;;2.65;2.10;;;;;;;29.11;46.21;101062.31;4186840;28;20058;-65
2022/06/05 02:19:34;;;;;;;3.15;2.03;;;;;;;29.11;46.28;101056.69;4178840;28;20045;-66
2022/06/05 02:21:40;;;;;;;3.03;2.25;;;;;;;29.10;46.52;101055.84;4174369;28;20485;-65
2022/06/05 02:23:41;;;;;;;2.40;2.20;;;;;;;29.10;46.32;101055.03;4172912;28;20038;-64
2022/06/05 02:25:42;;;;;;;2.83;2.10;;;;;;;29.10;46.11;101060.66;4174570;28;20088;-65
2022/06/05 02:27:47;;;;;;;2.60;2.00;;;;;;;29.10;46.26;101058.66;4171113;28;20099;-65
2022/06/05 02:29:50;;;;;;;3.03;2.20;;;;;;;29.11;46.40;101062.31;4178701;28;20501;-66
2022/06/05 02:32:25;;;;;;;3.17;2.05;;;;;;;29.08;46.27;101052.53;4187521;28;20102;-63
2022/06/05 02:34:53;;;;;;;3.42;2.88;;;;;;;29.08;46.02;101052.53;4196068;28;20044;-64
2022/06/05 02:37:21;;;;;;;4.43;1.98;;;;;;;29.09;46.11;101059.84;4155897;28;20045;-65
2022/06/05 02:39:52;;;;;;;4.82;2.40;;;;;;;29.10;46.12;101066.31;4196694;28;20485;-65
2022/06/05 02:42:35;;;;;;;2.20;1.90;;;;;;;29.08;46.18;101063.78;4192129;28;20094;-66
2022/06/05 02:45:20;;;;;;;2.17;1.90;;;;;;;29.01;46.29;101052.22;4186428;28;20033;-65
2022/06/05 02:47:35;;;;;;;3.20;2.20;;;;;;;29.12;46.32;101064.78;4172518;28;20051;-65
2022/06/05 02:49:55;;;;;;;;;;;;;;;29.10;46.23;101071.94;4178918;28;20488;-68
2022/06/05 02:52:01;;;;;;;3.72;2.30;;;;;;;29.15;46.10;101066.13;4166522;28;20320;-65
2022/06/05 02:54:03;;;;;;;3.10;2.05;;;;;;;29.15;46.19;101070.94;4172621;28;20036;-64
2022/06/05 02:56:08;;;;;;;2.60;2.30;;;;;;;29.12;46.08;101075.22;4168979;28;20901;-65
2022/06/05 02:58:14;;;;;;;2.67;2.15;;;;;;;29.11;46.22;101073.59;4165209;28;20041;-65
2022/06/05 03:00:22;;;;;;;2.60;1.88;;;;;;;29.10;46.24;101074.75;4165303;28;20091;-66
2022/06/05 03:04:44;;;;;;;3.03;1.88;;;;;;;29.09;46.30;101064.63;4167956;28;20106;-64
2022/06/05 03:06:45;;;;;;;3.22;2.20;;;;;;;29.08;46.13;101075.06;4176618;28;20439;-65
2022/06/05 03:08:50;;;;;;;2.38;2.15;;;;;;;29.07;46.05;101069.78;4178586;28;20041;-63
2022/06/05 03:10:51;;;;;;;3.85;2.28;;;;;;;29.06;46.15;101070.94;4180424;28;20095;-63
2022/06/05 03:12:53;;;;;;;3.75;2.35;;;;;;;29.02;46.27;101067.13;4174167;28;20033;-63
2022/06/05 03:15:01;;;;;;;3.35;2.10;;;;;;;29.05;46.26;101072.94;4168155;28;20041;-63
2022/06/05 03:17:03;;;;;;;2.92;2.33;;;;;;;29.07;46.08;101075.41;4176937;28;20037;-62
2022/06/05 03:19:04;;;;;;;4.07;2.17;;;;;;;29.05;45.99;101074.94;4172205;28;20437;-62
2022/06/05 03:21:05;;;;;;;2.53;2.28;;;;;;;29.06;46.29;101082.22;4167271;28;20087;-61
2022/06/05 03:23:09;;;;;;;2.08;1.88;;;;;;;29.05;46.24;101081.38;4165562;28;20096;-62
2022/06/05 03:25:19;;;;;;;3.75;2.30;;;;;;;29.05;46.45;101087.03;4175024;28;20044;-62
2022/06/05 03:27:20;;;;;;;3.17;2.10;;;;;;;29.02;45.95;101081.22;4171317;28;20118;-61
2022/06/05 03:29:22;;;;;;;4.72;2.47;;;;;;;29.05;46.05;101091.84;4167995;28;20036;-61
2022/06/05 03:31:23;;;;;;;3.97;2.53;;;;;;;28.96;46.34;101076.94;4184031;28;20036;-61
2022/06/05 03:33:25;;;;;;;4.28;2.40;;;;;;;29.04;46.08;101090.97;4161647;28;20050;-61
2022/06/05 03:35:26;;;;;;;3.13;2.10;;;;;;;29.02;46.09;101089.66;4175046;28;20053;-61
2022/06/05 03:37:27;;;;;;;2.42;1.95;;;;;;;29.04;46.08;101084.53;4180394;28;20020;-61
2022/06/05 03:39:30;;;;;;;3.97;2.00;;;;;;;29.04;46.33;101095.78;4176845;28;20098;-61
2022/06/05 03:41:37;;;;;;;3.05;2.22;;;;;;;29.02;46.16;101095.31;4170483;28;20435;-63
2022/06/05 03:43:38;;;;;;;4.00;2.95;;;;;;;29.00;46.42;101098.47;4169599;28;20099;-62
2022/06/05 03:45:43;;;;;;;2.58;1.90;;;;;;;28.99;46.30;101093.16;4170677;28;20385;-62
2022/06/05 03:47:44;;;;;;;;;;;;;;;29.00;46.23;101100.44;4165217;28;20041;-63
2022/06/05 03:49:46;;;;;;;2.63;2.10;;;;;;;29.04;45.88;101105.06;4174668;28;19912;-62
2022/06/05 03:51:48;;;;;;;3.67;2.03;;;;;;;28.97;45.83;101089.84;4164084;28;20041;-62
2022/06/05 03:53:49;;;;;;;3.45;1.75;;;;;;;29.01;45.93;101107.75;4170423;28;20041;-61
2022/06/05 03:55:51;;;;;;;7.63;2.30;;;;;;;28.97;46.08;101103.94;4164558;28;20427;-60
2022/06/05 03:57:53;;;;;;;4.60;1.90;;;;;;;29.01;46.11;101113.38;4175416;28;20041;-61
2022/06/05 03:59:54;;;;;;;2.35;1.92;;;;;;;28.99;45.83;101112.88;4175257;28;20087;-62
2022/06/05 04:01:55;;;;;;;1.70;1.58;;;;;;;28.99;46.24;101116.50;4166185;28;20041;-63
2022/06/05 04:04:02;;;;;;;2.90;2.17;;;;;;;28.98;45.82;101119.66;4164500;28;20040;-62
2022/06/05 04:06:08;;;;;;;2.38;1.88;;;;;;;28.98;45.93;101119.66;4168895;28;20045;-62
2022/06/05 04:08:16;;;;;;;5.13;2.00;;;;;;;28.97;45.83;101124.47;4181501;28;20041;-62
2022/06/05 04:10:19;;;;;;;3.65;1.83;;;;;;;28.97;46.17;101123.66;4190310;28;20036;-62
2022/06/05 04:12:23;;;;;;;2.88;1.70;;;;;;;28.97;46.04;101129.28;4166200;28;20428;-62
2022/06/05 04:14:27;;;;;;;3.40;2.20;;;;;;;28.97;46.26;101129.28;4166411;28;20045;-62
2022/06/05 04:16:30;;;;;;;2.20;2.00;;;;;;;28.97;46.06;101132.09;4167588;28;20095;-62
2022/06/05 04:18:32;;;;;;;2.75;1.75;;;;;;;28.96;46.24;101122.81;4177974;28;20457;-62
2022/06/05 04:20:34;;;;;;;2.53;2.03;;;;;;;28.97;46.34;101129.28;4169556;28;20045;-62
2022/06/05 04:22:41;;;;;;;2.65;1.80;;;;;;;28.96;46.52;101134.09;4180761;28;20033;-62
2022/06/05 04:24:42;;;;;;;3.08;2.08;;;;;;;28.96;46.48;101127.63;4173448;28;20032;-61
2022/06/05 04:26:44;;;;;;;2.13;1.90;;;;;;;28.97;46.55;101129.28;4178580;28;20045;-62
2022/06/05 04:28:46;;;;;;;3.20;1.98;;;;;;;28.97;46.39;101123.66;4172578;28;20048;-62
2022/06/05 04:30:47;;;;;;;6.35;2.10;;;;;;;28.97;46.40;101135.75;4176851;28;20064;-62
2022/06/05 04:32:48;;;;;;;4.45;2.08;;;;;;;28.97;46.47;101134.91;4161735;28;20436;-62
2022/06/05 04:35:00;;;;;;;3.55;1.95;;;;;;;28.96;46.41;101136.91;4174490;28;20554;-62
2022/06/05 04:37:01;;;;;;;4.82;1.90;;;;;;;28.91;46.65;101124.94;4164843;28;20033;-62
2022/06/05 04:39:03;;;;;;;7.22;2.20;;;;;;;28.98;46.68;101130.94;4178809;28;20095;-62
2022/06/05 04:41:05;;;;;;;4.72;1.98;;;;;;;28.93;46.68;101129.09;4178526;28;20038;-62
2022/06/05 04:43:08;;;;;;;3.70;2.20;;;;;;;28.97;46.45;101134.91;4171388;28;20037;-62
2022/06/05 04:45:09;;;;;;;6.72;2.60;;;;;;;28.92;46.74;101123.78;4180584;28;20585;-62
2022/06/05 04:47:11;;;;;;;6.60;2.10;;;;;;;28.99;46.63;101138.22;4174953;28;20075;-62
2022/06/05 04:49:14;;;;;;;5.93;2.15;;;;;;;28.88;46.60;101124.44;4173387;28;20029;-61
2022/06/05 04:51:19;;;;;;;6.72;2.20;;;;;;;28.99;46.80;101146.66;4164186;28;20041;-62
2022/06/05 04:53:21;;;;;;;4.65;2.03;;;;;;;28.99;46.60;101143.84;4164094;28;20088;-61
2022/06/05 04:55:25;;;;;;;4.55;2.13;;;;;;;28.99;46.71;101143.84;4170659;28;20033;-61
2022/06/05 04:57:27;;;;;;;7.45;2.35;;;;;;;28.99;46.65;101149.50;4180645;28;20106;-62
2022/06/05 04:59:28;;;;;;;4.07;1.85;;;;;;;28.93;46.79;101128.25;4174372;28;20088;-63
2022/06/05 05:01:32;;;;;;;3.90;1.90;;;;;;;29.00;46.88;101145.50;4164273;28;20042;-61
2022/06/05 05:03:33;;;;;;;4.85;2.15;;;;;;;28.99;46.92;101146.66;4163755;28;20103;-62
2022/06/05 05:05:36;;;;;;;9.05;2.50;;;;;;;28.99;46.84;101146.66;4164747;28;20045;-62
2022/06/05 05:07:38;;;;;;;7.25;2.10;;;;;;;29.00;46.78;101151.13;4146708;28;20057;-61
2022/06/05 05:09:39;;;;;;;6.93;2.28;;;;;;;28.99;46.65;101149.50;4172010;28;20107;-61
2022/06/05 05:11:41;;;;;;;5.97;2.00;;;;;;;29.00;46.86;101156.78;4167466;28;20186;-62
2022/06/05 05:13:42;;;;;;;5.93;1.88;;;;;;;29.00;46.86;101156.78;4166113;28;20535;-62
2022/06/05 05:15:49;;;;;;;6.00;2.28;;;;;;;28.97;46.60;101146.19;4166682;28;20041;-62
2022/06/05 05:17:54;;;;;;;4.85;2.17;;;;;;;28.98;46.93;101157.13;4166478;28;20045;-62
2022/06/05 05:19:57;;;;;;;6.55;2.45;;;;;;;28.99;46.86;101160.75;4168000;28;20072;-61
2022/06/05 05:22:01;;;;;;;6.43;2.10;;;;;;;28.99;47.09;101150.31;4166963;28;20034;-62
2022/06/05 05:24:03;;;;;;;4.65;1.88;;;;;;;28.99;47.00;101160.75;4166854;28;20042;-62
2022/06/05 05:26:08;;;;;;;2.80;2.00;;;;;;;29.00;46.74;101159.59;4166605;28;20037;-62
2022/06/05 05:28:13;;;;;;;7.13;2.10;;;;;;;28.97;46.85;101158.28;4166809;28;20088;-62
2022/06/05 05:30:21;;;;;;;4.90;2.10;;;;;;;28.99;46.80;101157.94;4170632;28;20095;-62
2022/06/05 05:32:22;;;;;;;3.28;2.00;;;;;;;28.99;46.84;101160.75;4182549;28;20057;-62
2022/06/05 05:34:24;;;;;;;2.35;1.80;;;;;;;28.99;46.92;101160.75;4167412;28;20554;-62
2022/06/05 05:36:29;;;;;;;3.47;2.30;;;;;;;28.98;47.08;101167.56;4167332;28;20041;-63
2022/06/05 05:38:30;;;;;;;5.90;2.15;;;;;;;28.98;46.72;101159.94;4166456;28;20083;-63
2022/06/05 05:42:51;;;;;;;7.57;2.00;;;;;;;28.99;46.87;101166.38;4167975;28;20439;-64
2022/06/05 05:44:53;;;;;;;5.20;1.92;;;;;;;28.98;46.95;101161.94;4166774;28;20041;-62
2022/06/05 05:46:54;;;;;;;4.32;2.28;;;;;;;28.97;47.03;101163.91;4178879;28;20106;-62
2022/06/05 05:48:59;;;;;;;6.85;2.13;;;;;;;28.98;47.05;101171.19;4183099;28;20091;-62
2022/06/05 05:51:00;;;;;;;2.45;2.00;;;;;;;28.98;46.74;101174.03;4183390;28;20033;-62
2022/06/05 05:53:01;;;;;;;3.63;2.00;;;;;;;28.99;46.82;101186.13;4180631;28;20025;-62
2022/06/05 05:55:05;;;;;;;6.57;2.20;;;;;;;28.99;47.11;101189.75;4166607;28;20041;-62
2022/06/05 05:57:08;;;;;;;3.45;2.22;;;;;;;28.98;46.80;101192.91;4166930;28;20029;-62
2022/06/05 05:59:10;;;;;;;2.90;1.63;;;;;;;28.99;46.96;101192.56;4176363;28;20568;-62
2022/06/05 06:01:14;;;;;;;2.97;2.45;;;;;;;28.98;46.73;101198.53;4180673;28;20102;-63
2022/06/05 06:03:15;;;;;;;4.47;1.90;;;;;;;28.98;46.86;101204.19;4182823;28;20431;-62
2022/06/05 06:05:20;;;;;;;3.92;2.50;;;;;;;28.97;47.03;101205.34;4165673;28;20095;-62
2022/06/05 06:07:21;;;;;;;3.03;1.73;;;;;;;28.96;47.05;101212.16;4167569;28;20053;-62
2022/06/05 06:09:23;;;;;;;5.18;2.00;;;;;;;28.97;46.96;101211.81;4174975;28;20097;-62
2022/06/05 06:11:25;;;;;;;4.22;1.85;;;;;;;28.97;46.86;101213.81;4180994;28;20048;-62
2022/06/05 06:13:27;;;;;;;2.05;1.70;;;;;;;28.98;46.82;101215.44;4183490;28;20439;-62
2022/06/05 06:15:28;;;;;;;3.90;2.05;;;;;;;28.93;46.77;101218.41;4182150;28;20045;-62
2022/06/05 06:17:30;;;;;;;3.10;2.05;;;;;;;28.97;46.94;101227.88;4179214;28;20037;-61
2022/06/05 06:19:31;;;;;;;2.70;2.35;;;;;;;28.96;46.96;101226.22;4167267;28;20091;-61
2022/06/05 06:21:33;;;;;;;5.15;2.00;;;;;;;28.96;46.88;101229.06;4172585;28;20049;-62
2022/06/05 06:23:34;;;;;;;2.15;1.75;;;;;;;28.96;47.01;101229.06;4182597;28;20033;-62
2022/06/05 06:25:37;;;;;;;2.28;1.73;;;;;;;28.94;46.94;101236.94;4180741;28;20458;-61
2022/06/05 06:27:39;;;;;;;3.53;2.20;;;;;;;28.96;46.72;101234.69;4181019;28;20557;-62
2022/06/05 06:29:40;;;;;;;4.82;1.90;;;;;;;28.95;47.01;101250.72;4182362;28;20134;-62
2022/06/05 06:31:44;;;;;;;5.65;1.92;;;;;;;28.95;46.91;101244.25;4173318;28;20099;-62
2022/06/05 06:33:48;;;;;;;2.60;1.80;;;;;;;28.94;46.91;101237.78;4165968;28;20033;-61
2022/06/05 06:35:49;;;;;;;2.97;1.70;;;;;;;28.95;46.87;101247.06;4165287;28;20046;-61
2022/06/05 06:37:50;;;;;;;3.83;1.77;;;;;;;28.95;46.89;101244.25;4165076;28;20037;-62
2022/06/05 06:39:55;;;;;;;3.45;2.17;;;;;;;28.95;46.64;101249.88;4165469;28;20103;-62
2022/06/05 06:41:56;;;;;;;4.45;1.67;;;;;;;28.95;47.12;101252.69;4166233;28;20451;-62
2022/06/05 06:43:58;;;;;;;4.50;2.10;;;;;;;28.94;46.74;101262.31;4165312;28;20056;-61
2022/06/05 06:46:00;;;;;;;2.97;1.50;;;;;;;28.91;46.61;101251.69;4168220;28;20119;-61
2022/06/05 06:48:01;;;;;;;2.05;1.60;;;;;;;28.93;46.90;101264.28;4166002;28;20046;-62
2022/06/05 06:50:04;;;;;;;2.95;1.85;;;;;;;28.90;46.73;101255.66;4177537;28;20099;-61
2022/06/05 06:52:05;;;;;;;2.65;1.80;;;;;;;28.92;46.72;101259.00;4171597;28;20095;-61
2022/06/05 06:54:10;;;;;;;2.17;1.60;;;;;;;28.88;47.00;101256.00;4169104;28;20091;-61
2022/06/05 06:56:20;;;;;;;2.60;1.73;;;;;;;28.92;46.85;101251.38;4164678;28;20045;-62
2022/06/05 06:58:22;;;;;;;4.95;2.00;;;;;;;28.94;46.83;101268.75;4166039;28;20037;-61
2022/06/05 07:00:23;;;;;;;3.88;1.90;;;;;;;28.94;46.48;101262.31;4171607;28;20102;-62
2022/06/05 07:02:24;;;;;;;2.33;1.40;;;;;;;28.93;46.60;101261.47;4174790;28;20090;-63
2022/06/05 07:04:26;;;;;;;4.47;1.80;;;;;;;28.92;46.56;101262.66;4182240;28;20037;-63
2022/06/05 07:06:27;;;;;;;3.15;1.88;;;;;;;28.91;46.75;101262.94;4179768;28;20041;-62
2022/06/05 07:08:29;;;;;;;2.55;1.77;;;;;;;28.93;46.48;101263.47;4180625;28;20436;-61
2022/06/05 07:10:31;;;;;;;4.43;1.80;;;;;;;28.91;46.52;101257.31;4179580;28;20114;-61
2022/06/05 07:12:35;;;;;;;3.35;1.90;;;;;;;28.93;46.50;101252.19;4181718;28;20045;-63
2022/06/05 07:14:36;;;;;;;5.15;1.90;;;;;;;28.92;46.67;101250.56;4181535;28;20033;-61
2022/06/05 07:16:38;;;;;;;3.33;2.13;;;;;;;28.88;46.65;101251.19;4166536;28;20141;-61
2022/06/05 07:18:40;;;;;;;2.50;1.52;;;;;;;28.92;46.60;101251.38;4164594;28;20038;-62
2022/06/05 07:20:43;;;;;;;3.17;1.60;;;;;;;28.91;46.73;101249.72;4165087;28;20053;-63
2022/06/05 07:22:45;;;;;;;1.92;1.42;;;;;;;28.89;46.67;101249.22;4165399;28;20084;-62
2022/06/05 07:24:46;;;;;;;2.67;1.83;;;;;;;28.90;46.74;101247.22;4164896;28;20045;-62
2022/06/05 07:26:48;;;;;;;5.35;2.00;;;;;;;28.90;46.86;101258.47;4165336;28;20186;-62
2022/06/05 07:29:05;;;;;;;2.03;1.73;;;;;;;28.90;46.71;101250.03;4180627;28;20067;-61
2022/06/05 07:31:08;;;;;;;3.08;1.80;;;;;;;28.90;46.55;101255.66;4181589;28;20099;-62
2022/06/05 07:33:12;;;;;;;3.42;1.90;;;;;;;28.88;46.54;101254.00;4166924;28;20099;-62
2022/06/05 07:35:15;;;;;;;2.80;1.80;;;;;;;28.89;46.63;101246.38;4165095;28;20037;-62
2022/06/05 07:37:16;;;;;;;2.58;1.85;;;;;;;28.88;46.73;101256.00;4163829;28;20103;-62
2022/06/05 07:39:20;;;;;;;3.25;1.60;;;;;;;28.87;46.80;101243.91;4164924;28;20432;-63
2022/06/05 07:41:27;;;;;;;1.65;1.52;;;;;;;28.87;46.60;101246.72;4167787;28;20091;-61
2022/06/05 07:43:31;;;;;;;1.58;1.38;;;;;;;28.87;46.68;101252.38;4165218;28;20550;-62
2022/06/05 07:45:32;;;;;;;1.67;1.42;;;;;;;28.84;46.61;101238.94;4163664;28;20080;-63
2022/06/05 07:47:39;;;;;;;2.15;1.63;;;;;;;28.88;46.47;101245.56;4149206;28;20033;-62
2022/06/05 07:49:41;;;;;;;1.98;1.40;;;;;;;28.87;46.53;101255.19;4163988;28;20033;-62
2022/06/05 07:56:23;;;;;;;2.72;1.58;;;;;;;28.88;46.47;101253.19;4181767;28;20094;-62
2022/06/05 07:58:24;;;;;;;1.95;1.75;;;;;;;28.85;46.48;101257.47;4169068;28;20099;-61
2022/06/05 08:00:29;;;;;;;3.90;1.80;;;;;;;28.87;46.53;101252.38;4164514;28;20118;-62
2022/06/05 08:02:33;;;;;;;2.72;1.60;;;;;;;28.85;46.67;101253.84;4164881;28;20431;-62
2022/06/05 08:04:38;;;;;;;2.85;1.38;;;;;;;28.84;46.77;101255.81;4164473;28;20099;-62
2022/06/05 08:06:40;;;;;;;3.08;1.40;;;;;;;28.85;46.38;101262.28;4164290;28;20538;-61
2022/06/05 08:08:44;;;;;;;2.75;1.58;;;;;;;28.85;46.64;101257.47;4174985;28;20585;-61
2022/06/05 08:10:46;;;;;;;2.53;1.58;;;;;;;28.84;46.61;101261.47;4170140;28;20773;-62
2022/06/05 08:12:48;;;;;;;4.00;2.00;;;;;;;28.85;46.60;101273.56;4167686;28;20451;-61
2022/06/05 08:14:51;;;;;;;1.67;1.58;;;;;;;28.84;46.44;101266.25;4180676;28;20040;-63
2022/06/05 08:16:53;;;;;;;3.88;1.70;;;;;;;28.84;46.68;101277.53;4181177;28;20044;-61
2022/06/05 08:18:55;;;;;;;2.65;1.50;;;;;;;28.84;46.44;101286.81;4177996;28;20439;-61
2022/06/05 08:20:56;;;;;;;3.78;1.50;;;;;;;28.85;46.37;101298.91;4181393;28;20103;-61
2022/06/05 08:22:57;;;;;;;2.08;1.70;;;;;;;28.83;46.67;101304.03;4178743;28;20455;-62
2022/06/05 08:24:59;;;;;;;2.13;1.55;;;;;;;28.83;46.32;101304.03;4181440;28;20032;-61
2022/06/05 08:27:00;;;;;;;1.98;1.65;;;;;;;28.82;46.39;101308.84;4180524;28;20041;-60
2022/06/05 08:29:02;;;;;;;2.85;1.33;;;;;;;28.81;46.64;101312.81;4179092;28;20049;-61
2022/06/05 08:31:07;;;;;;;1.73;1.17;;;;;;;28.82;46.48;101308.03;4182003;28;20033;-62
2022/06/05 08:33:10;;;;;;;2.22;1.30;;;;;;;28.83;46.47;101323.75;4175121;28;20071;-62
2022/06/05 08:35:11;;;;;;;1.60;1.38;;;;;;;28.81;46.53;101324.06;4164328;28;20064;-61
2022/06/05 08:42:15;;;;;;;1.98;1.60;;;;;;;28.81;46.41;101303.53;4173209;28;20095;-62
2022/06/05 08:44:24;;;;;;;1.63;1.27;;;;;;;28.82;46.53;101316.47;4173653;28;20095;-62
2022/06/05 08:46:41;;;;;;;3.30;1.38;;;;;;;28.80;46.59;101316.78;4169499;28;20107;-61
2022/06/05 08:48:51;;;;;;;3.17;1.63;;;;;;;28.80;46.59;101316.78;4170702;28;20045;-61
2022/06/05 08:51:33;;;;;;;3.05;1.38;;;;;;;28.79;46.75;101319.94;4174461;28;20033;-61
2022/06/05 08:53:45;;;;;;;2.85;1.58;;;;;;;28.80;46.50;101324.41;4183414;28;20048;-62
2022/06/05 08:55:53;;;;;;;2.08;1.30;;;;;;;28.81;46.40;101329.69;4170695;28;20095;-60
2022/06/05 08:58:20;;;;;;;1.38;1.23;;;;;;;28.79;46.51;101329.22;4181397;28;20095;-62
2022/06/05 09:00:42;;;;;;;2.00;1.27;;;;;;;27.70;46.57;101161.94;4181334;28;20087;-62
2022/06/05 09:02:56;;;;;;;2.55;1.80;;;;;;;28.76;46.39;101349.56;4181917;28;20091;-61
2022/06/05 09:05:08;;;;;;;1.55;1.20;;;;;;;28.78;46.37;101355.72;4177822;28;20033;-61
2022/06/05 09:07:15;;;;;;;1.60;1.30;;;;;;;28.76;46.47;101352.38;4167816;28;20132;-61
2022/06/05 09:09:33;;;;;;;2.47;1.25;;;;;;;28.77;46.56;101368.16;4167361;28;20096;-61
2022/06/05 09:11:38;;;;;;;1.73;1.23;;;;;;;28.78;46.50;101375.44;4168773;28;20045;-61
2022/06/05 09:14:04;;;;;;;2.80;1.40;;;;;;;28.77;46.43;101368.16;4167170;28;20489;-61
2022/06/05 09:16:09;;;;;;;3.63;1.58;;;;;;;28.78;46.30;101369.81;4173594;28;20103;-62
2022/06/05 09:18:20;;;;;;;;;;;;;;;28.76;46.71;101371.28;4167463;28;20480;-62
2022/06/05 09:20:38;;;;;;;2.67;1.15;;;;;;;28.80;46.30;101373.09;4173784;28;19917;-62
2022/06/05 09:23:02;;;;;;;3.47;1.30;;;;;;;28.77;46.31;101385.03;4183371;28;20548;-62
2022/06/05 09:25:26;;;;;;;1.85;1.40;;;;;;;28.76;46.57;101386.19;4174223;28;20052;-62
2022/06/05 09:27:36;;;;;;;2.60;1.45;;;;;;;28.78;46.58;101386.69;4183195;28;20094;-62
2022/06/05 09:30:04;;;;;;;1.02;0.98;;;;;;;28.76;46.58;101394.63;4169737;28;20037;-61
2022/06/05 09:32:14;;;;;;;3.42;1.63;;;;;;;28.76;46.31;101389.00;4183081;28;20036;-62
2022/06/05 09:34:48;;;;;;;1.95;1.30;;;;;;;28.73;46.48;101389.66;4172956;28;20424;-62
2022/06/05 09:37:10;;;;;;;1.30;1.20;;;;;;;28.74;46.39;101391.31;4165818;28;20095;-62
2022/06/05 09:39:42;;;;;;;1.65;1.30;;;;;;;28.72;46.28;101382.34;4172777;28;20052;-61
2022/06/05 09:41:52;;;;;;;2.20;1.20;;;;;;;28.75;46.46;101381.72;4173619;28;20044;-61
2022/06/05 09:44:21;;;;;;;1.35;1.10;;;;;;;28.72;46.49;101379.53;4180783;28;20041;-62
2022/06/05 09:46:44;;;;;;;1.50;1.27;;;;;;;28.73;46.60;101378.41;4169440;28;20075;-61
2022/06/05 09:49:00;;;;;;;2.22;1.23;;;;;;;28.73;46.56;101369.94;4166339;28;20053;-61
2022/06/05 09:51:06;;;;;;;1.10;1.00;;;;;;;28.73;46.44;101375.59;4166055;28;20095;-62
2022/06/05 09:53:16;;;;;;;1.77;1.30;;;;;;;28.70;46.23;101367.78;4166769;28;20092;-62
2022/06/05 09:55:56;;;;;;;1.20;1.10;;;;;;;28.69;46.67;101371.75;4164796;28;20110;-62
2022/06/05 09:58:25;;;;;;;1.30;1.20;;;;;;;28.66;46.59;101354.66;4172661;28;20056;-61
2022/06/05 10:00:53;;;;;;;1.20;1.10;;;;;;;28.71;46.25;101368.59;4180747;28;20442;-62
2022/06/05 10:03:06;;;;;;;1.90;1.10;;;;;;;28.67;46.58;101381.66;4176074;28;20092;-62
2022/06/05 10:05:28;;;;;;;2.92;1.30;;;;;;;28.67;46.64;101388.13;4166677;28;20493;-62
2022/06/05 10:07:44;;;;;;;1.20;1.10;;;;;;;28.69;46.35;101394.28;4166069;28;20080;-61
2022/06/05 10:09:49;;;;;;;1.20;1.10;;;;;;;28.64;46.23;101388.78;4166389;28;20544;-62
2022/06/05 10:12:11;;;;;;;1.85;1.33;;;;;;;28.70;46.36;101395.94;4165349;28;20045;-62